Latest Weather Observations for Noarlunga

IDS60901

Issued at 7:01 pm CDT Tuesday 10 December 2019 (issued every 10 minutes, with the page automatically refreshed every 10 minutes)

About weather observations | Map of Adelaide area stations | Latest observations for Adelaide area | Other Formats
Station Details ID: 023885 Name: NOARLUNGA Lat: -35.16 Lon: 138.51 Height: 55.0 m
Data from the previous 72 hours. | See also: Recent months at Noarlunga
Date/Time
CDT
Temp
°C
App
Temp
°C
Dew
Point
°C
Rel
Hum
%
Delta-T
°C
Wind Press
QNH
hPa
Press
MSL
hPa
Rain since
9am
mm
Dir  Spd
km/h
Gust
km/h
Spd
kts
Gust
kts
10/07:00pm 17.3 12.4 7.1 51 5.1 SSE 22 30 12 16 - - 0.0
10/06:30pm 18.6 14.0 6.4 45 6.1 SE 20 30 11 16 - - 0.0
10/06:00pm 19.5 14.6 6.9 44 6.4 SSE 22 32 12 17 - - 0.0
10/05:30pm 19.9 14.4 5.9 40 7.0 SSE 24 33 13 18 - - 0.0
10/05:00pm 20.9 15.8 6.1 38 7.4 SSE 22 32 12 17 - - 0.0
10/04:30pm 20.9 16.2 6.1 38 7.4 SE 20 32 11 17 - - 0.0
10/04:00pm 20.9 15.7 5.7 37 7.6 SE 22 32 12 17 - - 0.0
10/03:30pm 21.7 17.4 6.8 38 7.6 SSE 19 26 10 14 - - 0.0
10/03:00pm 21.6 17.1 7.1 39 7.5 SSE 20 32 11 17 - - 0.0
10/02:30pm 21.4 17.0 7.6 41 7.2 SSE 20 28 11 15 - - 0.0
10/02:00pm 22.1 18.5 8.2 41 7.3 SSE 17 28 9 15 - - 0.0
10/01:30pm 21.8 18.3 8.7 43 6.9 SE 17 30 9 16 - - 0.0
10/01:00pm 20.6 16.9 7.9 44 6.6 SSE 17 28 9 15 - - 0.0
10/12:30pm 20.5 16.9 8.5 46 6.3 SE 17 30 9 16 - - 0.0
10/12:00pm 20.0 16.7 9.6 51 5.6 SSE 17 30 9 16 - - 0.0
10/11:30am 18.1 14.1 8.9 55 4.8 SSE 20 30 11 16 - - 0.0
10/11:00am 18.3 14.4 9.4 56 4.7 SE 20 32 11 17 - - 0.0
10/10:30am 17.9 15.0 9.5 58 4.4 SE 15 22 8 12 - - 0.0
10/10:00am 17.0 13.7 9.4 61 4.0 SSE 17 26 9 14 - - 0.0
10/09:30am 16.4 13.2 10.0 66 3.4 SE 17 28 9 15 - - 0.0
10/09:00am 16.1 13.8 10.6 70 2.9 SE 13 19 7 10 - - 0.0
10/08:30am 15.5 11.9 9.8 69 3.0 SE 19 24 10 13 - - 0.0
10/08:00am 15.4 12.8 10.6 73 2.5 SSE 15 24 8 13 - - 0.0
10/07:30am 14.7 11.9 10.1 74 2.4 S 15 22 8 12 - - 0.0
10/07:00am 14.3 12.7 10.3 77 2.1 S 9 19 5 10 - - 0.0
10/06:30am 13.7 11.8 10.5 81 1.7 SSE 11 17 6 9 - - 0.0
10/06:00am 14.1 11.7 9.9 76 2.2 SSE 13 19 7 10 - - 0.0
10/05:30am 14.1 11.6 9.7 75 2.3 SSE 13 19 7 10 - - 0.0
10/05:00am 14.0 11.1 9.6 75 2.3 SSE 15 26 8 14 - - 0.0
10/04:30am 14.4 12.4 10.0 75 2.3 SSE 11 17 6 9 - - 0.0
10/04:00am 14.3 11.7 9.5 73 2.5 S 13 22 7 12 - - 0.0
10/03:30am 14.4 11.1 9.6 73 2.5 SSE 17 22 9 12 - - 0.0
10/03:00am 14.8 12.1 10.2 74 2.4 S 15 22 8 12 - - 0.0
10/02:30am 14.9 12.9 10.3 74 2.4 S 11 19 6 10 - - 0.0
10/02:00am 14.7 11.5 10.1 74 2.4 SSE 17 22 9 12 - - 0.0
10/01:30am 14.9 12.3 10.7 76 2.2 S 15 19 8 10 - - 0.0
10/01:00am 15.1 12.9 10.7 75 2.3 S 13 20 7 11 - - 0.0
10/12:30am 15.2 13.1 11.0 76 2.2 S 13 20 7 11 - - 0.0
10/12:00am 15.0 13.2 11.0 77 2.1 S 11 15 6 8 - - 0.0
 
Date/Time
CDT
Temp
°C
App
Temp
°C
Dew
Point
°C
Rel
Hum
%
Delta-T
°C
Wind Press
QNH
hPa
Press
MSL
hPa
Rain since
9am
mm
Dir  Spd
km/h
Gust
km/h
Spd
kts
Gust
kts
09/11:30pm 14.7 13.0 11.1 79 1.9 S 11 19 6 10 - - 0.0
09/11:00pm 15.0 13.3 11.2 78 2.0 S 11 17 6 9 - - 0.0
09/10:30pm 15.4 12.6 11.2 76 2.3 SSE 17 24 9 13 - - 0.0
09/10:00pm 16.0 13.5 11.2 73 2.6 SSE 15 20 8 11 - - 0.0
09/09:30pm 17.1 14.9 10.9 67 3.3 SE 13 22 7 12 - - 0.0
09/09:00pm 18.3 16.8 10.4 60 4.2 SSE 9 15 5 8 - - 0.0
09/08:30pm 19.1 17.0 9.6 54 5.0 ESE 11 20 6 11 - - 0.0
09/08:00pm 20.2 16.6 10.0 52 5.5 ESE 19 26 10 14 - - 0.0
09/07:30pm 19.5 18.7 11.8 61 4.3 SSW 7 15 4 8 - - 0.0
09/07:00pm 18.4 16.9 13.1 71 3.0 S 13 22 7 12 - - 0.0
09/06:30pm 20.7 19.6 13.2 62 4.3 WNW 11 24 6 13 - - 0.0
09/06:00pm 21.2 19.5 12.3 57 5.0 ESE 13 19 7 10 - - 0.0
09/05:30pm 19.0 17.7 12.5 66 3.6 SSW 11 17 6 9 - - 0.0
09/05:00pm 20.0 18.0 12.7 63 4.1 SW 15 26 8 14 - - 0.0
09/04:30pm 20.2 17.7 12.2 60 4.5 SW 17 30 9 16 - - 0.0
09/04:00pm 19.0 15.6 12.5 66 3.6 SW 22 37 12 20 - - 0.0
09/03:31pm 19.4 15.0 12.9 66 3.7 SW 28 48 15 26 - - 0.0
09/03:30pm 19.3 14.5 12.8 66 3.7 WSW 30 48 16 26 - - 0.0
09/03:13pm 19.6 15.0 12.4 63 4.0 WSW 28 50 15 27 - - 0.0
09/03:00pm 20.6 17.7 12.8 61 4.4 WSW 20 30 11 16 - - 0.0
09/02:30pm 20.3 18.2 13.5 65 3.9 SW 17 24 9 13 - - 0.0
09/02:00pm 20.1 18.5 13.8 67 3.6 WSW 15 24 8 13 - - 0.0
09/01:30pm 20.0 18.5 14.1 69 3.4 SW 15 26 8 14 - - 0.0
09/01:00pm 20.6 18.3 14.0 66 3.8 WSW 19 24 10 13 - - 0.0
09/12:30pm 21.9 20.4 14.3 62 4.5 WSW 15 22 8 12 - - 0.0
09/12:00pm 21.7 20.2 14.1 62 4.4 SW 15 22 8 12 - - 0.0
09/11:30am 21.6 20.1 14.3 63 4.3 WSW 15 20 8 11 - - 0.0
09/11:00am 22.7 22.3 14.0 58 5.1 WSW 9 17 5 9 - - 0.0
09/10:30am 21.7 20.4 13.6 60 4.7 SW 13 19 7 10 - - 0.0
09/10:00am 22.2 20.9 13.8 59 4.9 WSW 13 19 7 10 - - 0.0
09/09:30am 22.4 21.6 14.0 59 4.9 WSW 11 17 6 9 - - 0.0
09/09:00am 23.2 23.1 13.9 56 5.4 W 7 11 4 6 - - 0.0
09/08:30am 22.6 22.0 13.4 56 5.3 SW 9 17 5 9 - - 0.0
09/08:00am 22.4 23.4 14.3 60 4.8 N 2 4 1 2 - - 0.0
09/07:30am 21.3 20.9 14.0 63 4.2 NW 9 15 5 8 - - 0.0
09/07:00am 22.4 22.2 11.8 51 6.0 N 4 6 2 3 - - 0.0
09/06:30am 22.0 21.1 11.4 51 5.9 ENE 7 11 4 6 - - 0.0
09/06:00am 21.3 20.7 12.2 56 5.1 ENE 7 13 4 7 - - 0.0
09/05:30am 20.3 20.1 13.0 63 4.2 NNW 6 6 3 3 - - 0.0
09/05:00am 20.5 20.3 13.0 62 4.3 WSW 6 11 3 6 - - 0.0
09/04:30am 25.1 22.1 4.3 26 10.4 NW 9 15 5 8 - - 0.0
09/04:00am 26.0 22.1 1.3 20 11.8 NNE 11 15 6 8 - - 0.0
09/03:30am 23.8 21.2 3.2 26 10.0 WSW 6 9 3 5 - - 0.0
09/03:00am 25.8 22.9 2.5 22 11.3 E 7 15 4 8 - - 0.0
09/02:30am 26.6 22.9 2.5 21 11.8 ENE 11 15 6 8 - - 0.0
09/02:00am 26.8 23.6 3.3 22 11.7 NE 9 13 5 7 - - 0.0
09/01:30am 26.8 24.2 4.0 23 11.5 N 7 11 4 6 - - 0.0
09/01:00am 28.3 25.7 3.2 20 12.6 SSW 6 9 3 5 - - 0.0
09/12:30am 28.8 26.3 3.6 20 12.7 WSW 6 11 3 6 - - 0.0
09/12:00am 31.9 27.1 -2.2 11 15.9 ENE 13 19 7 10 - - 0.0
 
Date/Time
CDT
Temp
°C
App
Temp
°C
Dew
Point
°C
Rel
Hum
%
Delta-T
°C
Wind Press
QNH
hPa
Press
MSL
hPa
Rain since
9am
mm
Dir  Spd
km/h
Gust
km/h
Spd
kts
Gust
kts
08/11:30pm 32.1 26.6 -2.0 11 16.0 ENE 17 22 9 12 - - 0.0
08/11:00pm 32.0 26.5 -2.1 11 16.0 ENE 17 26 9 14 - - 0.0
08/10:30pm 32.1 27.4 -2.0 11 16.0 ENE 13 20 7 11 - - 0.0
08/10:00pm 32.2 26.7 -2.0 11 16.1 ENE 17 26 9 14 - - 0.0
08/09:30pm 32.2 27.1 -2.0 11 16.1 ENE 15 20 8 11 - - 0.0
08/09:00pm 32.5 27.8 -1.7 11 16.2 ENE 13 20 7 11 - - 0.0
08/08:30pm 32.9 28.3 -1.4 11 16.4 ENE 13 17 7 9 - - 0.0
08/08:00pm 33.9 29.9 -2.0 10 17.1 ENE 9 15 5 8 - - 0.0
08/07:30pm 35.8 31.8 -2.0 9 18.2 ENE 9 15 5 8 - - 0.0
08/07:00pm 37.0 33.3 -4.4 7 19.4 NNE 6 11 3 6 - - 0.0
08/06:30pm 37.8 34.4 -2.1 8 19.4 NNE 6 11 3 6 - - 0.0
08/06:00pm 38.2 35.2 -1.8 8 19.6 NW 4 6 2 3 - - 0.0
08/05:30pm 37.8 34.2 -2.1 8 19.4 NNW 7 15 4 8 - - 0.0
08/05:00pm 37.2 32.8 -2.5 8 19.1 NW 11 19 6 10 - - 0.0
08/04:30pm 38.1 34.1 -1.9 8 19.6 NW 9 15 5 8 - - 0.0
08/04:00pm 37.3 32.9 -2.4 8 19.2 NW 11 19 6 10 - - 0.0
08/03:30pm 36.9 32.5 -2.7 8 19.0 NW 11 17 6 9 - - 0.0
08/03:00pm 37.1 33.3 -1.0 9 18.8 WNW 9 15 5 8 - - 0.0
08/02:30pm 35.3 31.1 -0.9 10 17.7 W 11 17 6 9 - - 0.0
08/02:00pm 36.3 31.8 -0.2 10 18.2 WNW 13 19 7 10 - - 0.0
08/01:30pm 35.3 30.5 0.4 11 17.4 WNW 15 24 8 13 - - 0.0
08/01:00pm 36.0 30.7 -0.4 10 18.0 NNW 17 24 9 13 - - 0.0
08/12:30pm 35.5 29.6 -0.8 10 17.8 NNW 20 28 11 15 - - 0.0
08/12:00pm 34.8 29.6 0.0 11 17.2 N 17 26 9 14 - - 0.0
08/11:30am 33.8 27.9 -0.7 11 16.7 NNE 20 30 11 16 - - 0.0
08/11:00am 32.7 27.0 -0.4 12 16.0 NNE 19 30 10 16 - - 0.0
08/10:30am 31.6 24.5 -1.2 12 15.5 NNE 26 37 14 20 - - 0.0
08/10:00am 31.6 26.2 -1.2 12 15.5 NNE 17 26 9 14 - - 0.0
08/09:30am 30.3 24.9 -1.2 13 14.8 NNE 17 26 9 14 - - 0.0
08/09:00am 28.8 25.7 3.6 20 12.7 NNE 9 19 5 10 - - 0.0
08/08:30am 25.7 23.8 4.8 26 10.6 E 4 6 2 3 - - 0.0
08/08:00am 24.1 22.2 5.0 29 9.6 NE 4 6 2 3 - - 0.0
08/07:30am 22.1 19.4 3.7 30 8.9 NE 7 11 4 6 - - 0.0
08/07:00am 20.7 17.4 4.3 34 7.9 ENE 11 17 6 9 - - 0.0
08/06:30am 19.6 14.6 4.5 37 7.3 ENE 20 32 11 17 - - 0.0
08/06:00am 18.7 12.7 5.2 41 6.6 E 26 35 14 19 - - 0.0
08/05:30am 18.4 12.8 5.6 43 6.3 E 24 35 13 19 - - 0.0
08/05:00am 18.5 13.0 6.0 44 6.2 E 24 33 13 18 - - 0.0
08/04:30am 18.5 13.0 6.0 44 6.2 E 24 35 13 19 - - 0.0
08/04:00am 18.6 13.1 6.1 44 6.2 E 24 35 13 19 - - 0.0
08/03:30am 18.7 13.6 6.2 44 6.2 ENE 22 32 12 17 - - 0.0
08/03:00am 18.4 13.4 6.6 46 5.9 E 22 35 12 19 - - 0.0
08/02:30am 18.4 13.4 6.3 45 6.0 ENE 22 32 12 17 - - 0.0
08/02:00am 18.6 13.6 6.4 45 6.1 ENE 22 33 12 18 - - 0.0
08/01:30am 18.1 12.7 6.3 46 5.8 ENE 24 37 13 20 - - 0.0
08/01:00am 17.5 12.8 7.8 53 4.9 ENE 22 32 12 17 - - 0.0
08/12:30am 17.1 12.5 8.3 56 4.5 ENE 22 30 12 16 - - 0.0
08/12:00am 16.6 11.3 8.6 59 4.1 ENE 26 37 14 20 - - 0.0
 
Date/Time
CDT
Temp
°C
App
Temp
°C
Dew
Point
°C
Rel
Hum
%
Delta-T
°C
Wind Press
QNH
hPa
Press
MSL
hPa
Rain since
9am
mm
Dir  Spd
km/h
Gust
km/h
Spd
kts
Gust
kts
07/11:30pm 15.9 11.9 9.1 64 3.5 ENE 20 32 11 17 - - 0.0
07/11:00pm 15.6 11.3 9.3 66 3.3 ENE 22 32 12 17 - - 0.0
07/10:30pm 15.6 11.6 9.1 65 3.3 ENE 20 32 11 17 - - 0.0
07/10:00pm 15.9 12.8 8.9 63 3.6 E 15 24 8 13 - - 0.0
07/09:30pm 16.1 11.7 8.8 62 3.7 ESE 22 37 12 20 - - 0.0
07/09:00pm 16.9 12.0 8.6 58 4.3 ESE 24 33 13 18 - - 0.0
07/08:30pm 18.0 13.9 8.6 54 4.9 ESE 20 28 11 15 - - 0.0
07/08:00pm 19.6 15.7 8.6 49 5.7 ESE 19 28 10 15 - - 0.0
07/07:30pm 21.1 17.1 8.4 44 6.7 ESE 19 32 10 17 - - 0.0

Latest Capital City Observations: Canberra | Sydney | Melbourne | Brisbane | Adelaide | Perth | Hobart | Darwin

Other formats

Comma delimited format used in spreadsheet applications
http://www.bom.gov.au/fwo/IDS60901/IDS60901.94808.axf

JavaScript Object Notation format (JSON) in row-major order
http://www.bom.gov.au/fwo/IDS60901/IDS60901.94808.json

Data quality

Most of these data are generated automatically and are frequently updated. Quality checks on data are not normally performed. It is possible for incorrect values to appear. Refer to information at About Latest Weather Observations and please check the disclaimer before using these data.